FLX410 SBSN-SBBE
Flight info
| Callsign | FLX410 |
|---|---|
| Flight time | 1h 3m |
| Altitude | 33000 |
| Route | EMAKE DCT PAKUT |
| Aircraft | B38M/M-SDE1FGHILORVWXY/HB1 |
Departure
| Time | 2026-05-09 00:44 |
|---|---|
| Airport | Santarém - Maestro Wilson Fonseca International Airport (SBSN) |
Arrival
| Time | 2026-05-09 01:47 |
|---|---|
| Airport | Val de Cans/Júlio Cezar Ribeiro International Airport (SBBE) |
| Time | Latitude | Longitude | Altitude | Speed | Heading |
|---|---|---|---|---|---|
| 2026-05-09 00:28 | -2.42344 | -54.78471 | 208 ft | 0 kts | 166° |
| 2026-05-09 00:31 | -2.42337 | -54.78473 | 208 ft | 1 kts | 165° |
| 2026-05-09 00:31 | -2.42328 | -54.78476 | 215 ft | 1 kts | 165° |
| 2026-05-09 00:31 | -2.42319 | -54.78478 | 212 ft | 1 kts | 164° |
| 2026-05-09 00:31 | -2.42310 | -54.78482 | 216 ft | 1 kts | 118° |
| 2026-05-09 00:32 | -2.42308 | -54.78491 | 212 ft | 0 kts | 66° |
| 2026-05-09 00:37 | -2.42307 | -54.78489 | 213 ft | 0 kts | 54° |
| 2026-05-09 00:37 | -2.42305 | -54.78488 | 213 ft | 0 kts | 34° |
| 2026-05-09 00:37 | -2.42300 | -54.78487 | 216 ft | 0 kts | 12° |
| 2026-05-09 00:38 | -2.42298 | -54.78488 | 215 ft | 1 kts | 355° |
| 2026-05-09 00:38 | -2.42291 | -54.78496 | 216 ft | 3 kts | 292° |
| 2026-05-09 00:38 | -2.42300 | -54.78535 | 208 ft | 10 kts | 247° |
| 2026-05-09 00:38 | -2.42326 | -54.78603 | 212 ft | 10 kts | 266° |
| 2026-05-09 00:39 | -2.42307 | -54.78644 | 218 ft | 0 kts | 301° |
| 2026-05-09 00:39 | -2.42293 | -54.78659 | 214 ft | 7 kts | 314° |
| 2026-05-09 00:39 | -2.42235 | -54.78712 | 208 ft | 16 kts | 320° |
| 2026-05-09 00:39 | -2.42178 | -54.78805 | 210 ft | 19 kts | 269° |
| 2026-05-09 00:40 | -2.42196 | -54.78961 | 211 ft | 26 kts | 261° |
| 2026-05-09 00:40 | -2.42230 | -54.79168 | 211 ft | 34 kts | 259° |
| 2026-05-09 00:40 | -2.42276 | -54.79426 | 211 ft | 40 kts | 259° |
| 2026-05-09 00:41 | -2.42348 | -54.79847 | 212 ft | 19 kts | 262° |
| 2026-05-09 00:41 | -2.42366 | -54.79982 | 210 ft | 20 kts | 262° |
| 2026-05-09 00:41 | -2.42384 | -54.80125 | 209 ft | 22 kts | 262° |
| 2026-05-09 00:41 | -2.42415 | -54.80265 | 209 ft | 12 kts | 231° |
| 2026-05-09 00:42 | -2.42449 | -54.80335 | 208 ft | 13 kts | 307° |
| 2026-05-09 00:42 | -2.42426 | -54.80344 | 210 ft | 2 kts | 355° |
| 2026-05-09 00:42 | -2.42412 | -54.80337 | 211 ft | 2 kts | 51° |
| 2026-05-09 00:42 | -2.42409 | -54.80326 | 209 ft | 0 kts | 82° |
| 2026-05-09 00:43 | -2.42407 | -54.80313 | 214 ft | 19 kts | 82° |
| 2026-05-09 00:43 | -2.42337 | -54.79881 | 214 ft | 104 kts | 80° |
| 2026-05-09 00:43 | -2.42182 | -54.78931 | 249 ft | 164 kts | 80° |
| 2026-05-09 00:44 | -2.41869 | -54.77676 | 509 ft | 202 kts | 77° |
| 2026-05-09 00:44 | -2.41678 | -54.76382 | 1774 ft | 179 kts | 82° |
| 2026-05-09 00:44 | -2.41501 | -54.75097 | 2312 ft | 201 kts | 82° |
| 2026-05-09 00:44 | -2.41285 | -54.73645 | 2736 ft | 221 kts | 81° |
| 2026-05-09 00:45 | -2.41048 | -54.72083 | 3343 ft | 231 kts | 81° |
| 2026-05-09 00:45 | -2.40802 | -54.70499 | 4278 ft | 231 kts | 81° |
| 2026-05-09 00:45 | -2.40540 | -54.68846 | 4883 ft | 248 kts | 81° |
| 2026-05-09 00:45 | -2.40260 | -54.67100 | 5513 ft | 258 kts | 81° |
| 2026-05-09 00:46 | -2.39974 | -54.65331 | 6379 ft | 260 kts | 81° |
| 2026-05-09 00:46 | -2.39682 | -54.63527 | 7086 ft | 264 kts | 81° |
| 2026-05-09 00:46 | -2.39385 | -54.61700 | 7795 ft | 269 kts | 82° |
| 2026-05-09 00:46 | -2.39083 | -54.59837 | 8492 ft | 273 kts | 82° |
| 2026-05-09 00:47 | -2.38775 | -54.57944 | 9175 ft | 278 kts | 82° |
| 2026-05-09 00:47 | -2.38462 | -54.56014 | 9853 ft | 283 kts | 82° |
| 2026-05-09 00:47 | -2.38140 | -54.54038 | 10292 ft | 295 kts | 81° |
| 2026-05-09 00:47 | -2.37807 | -54.51983 | 10482 ft | 313 kts | 81° |
| 2026-05-09 00:48 | -2.37286 | -54.49799 | 10576 ft | 333 kts | 71° |
| 2026-05-09 00:48 | -2.36484 | -54.47574 | 10703 ft | 347 kts | 71° |
| 2026-05-09 00:48 | -2.35668 | -54.45279 | 11074 ft | 350 kts | 71° |
| 2026-05-09 00:48 | -2.34855 | -54.42976 | 11491 ft | 353 kts | 71° |
| 2026-05-09 00:49 | -2.34035 | -54.40650 | 11874 ft | 356 kts | 71° |
| 2026-05-09 00:49 | -2.33212 | -54.38310 | 12255 ft | 358 kts | 71° |
| 2026-05-09 00:49 | -2.32384 | -54.35954 | 12636 ft | 360 kts | 71° |
| 2026-05-09 00:49 | -2.31549 | -54.33580 | 13005 ft | 362 kts | 71° |
| 2026-05-09 00:50 | -2.30710 | -54.31196 | 13362 ft | 365 kts | 71° |
| 2026-05-09 00:50 | -2.29870 | -54.28807 | 13695 ft | 367 kts | 71° |
| 2026-05-09 00:50 | -2.29021 | -54.26392 | 14000 ft | 368 kts | 71° |
| 2026-05-09 00:50 | -2.28169 | -54.23970 | 14289 ft | 370 kts | 71° |
| 2026-05-09 00:51 | -2.27322 | -54.21565 | 14530 ft | 373 kts | 71° |
| 2026-05-09 00:51 | -2.26461 | -54.19115 | 14820 ft | 374 kts | 71° |
| 2026-05-09 00:51 | -2.25726 | -54.16616 | 15067 ft | 375 kts | 81° |
| 2026-05-09 00:51 | -2.25361 | -54.14030 | 15317 ft | 377 kts | 82° |
| 2026-05-09 00:52 | -2.24984 | -54.11428 | 15557 ft | 378 kts | 82° |
| 2026-05-09 00:52 | -2.24736 | -54.09701 | 15731 ft | 379 kts | 82° |
| 2026-05-09 00:52 | -2.24361 | -54.07085 | 15964 ft | 381 kts | 82° |
| 2026-05-09 00:52 | -2.23988 | -54.04471 | 16187 ft | 382 kts | 82° |
| 2026-05-09 00:53 | -2.23611 | -54.01832 | 16423 ft | 383 kts | 82° |
| 2026-05-09 00:53 | -2.23233 | -53.99187 | 16633 ft | 385 kts | 82° |
| 2026-05-09 00:53 | -2.22854 | -53.96534 | 16837 ft | 386 kts | 82° |
| 2026-05-09 00:53 | -2.22473 | -53.93871 | 17048 ft | 388 kts | 82° |
| 2026-05-09 00:54 | -2.22091 | -53.91195 | 17242 ft | 389 kts | 82° |
| 2026-05-09 00:54 | -2.21707 | -53.88510 | 17435 ft | 390 kts | 82° |
| 2026-05-09 00:54 | -2.21323 | -53.85818 | 17620 ft | 391 kts | 82° |
| 2026-05-09 00:54 | -2.20937 | -53.83119 | 17803 ft | 392 kts | 82° |
| 2026-05-09 00:55 | -2.20551 | -53.80422 | 17978 ft | 393 kts | 82° |
| 2026-05-09 00:55 | -2.20163 | -53.77710 | 18152 ft | 394 kts | 82° |
| 2026-05-09 00:55 | -2.19775 | -53.74992 | 18298 ft | 396 kts | 82° |
| 2026-05-09 00:55 | -2.19385 | -53.72263 | 18432 ft | 397 kts | 82° |
| 2026-05-09 00:56 | -2.18998 | -53.69561 | 18555 ft | 398 kts | 82° |
| 2026-05-09 00:56 | -2.18606 | -53.66822 | 18694 ft | 398 kts | 82° |
| 2026-05-09 00:56 | -2.18213 | -53.64078 | 18826 ft | 399 kts | 82° |
| 2026-05-09 00:56 | -2.17820 | -53.61329 | 18964 ft | 399 kts | 82° |
| 2026-05-09 00:57 | -2.17427 | -53.58579 | 19091 ft | 400 kts | 82° |
| 2026-05-09 00:57 | -2.17033 | -53.55827 | 19212 ft | 400 kts | 82° |
| 2026-05-09 00:57 | -2.16638 | -53.53069 | 19335 ft | 401 kts | 82° |
| 2026-05-09 00:57 | -2.16243 | -53.50307 | 19450 ft | 401 kts | 82° |
| 2026-05-09 00:58 | -2.15847 | -53.47545 | 19563 ft | 402 kts | 82° |
| 2026-05-09 00:58 | -2.15450 | -53.44776 | 19678 ft | 402 kts | 82° |
| 2026-05-09 00:58 | -2.15054 | -53.42006 | 19783 ft | 403 kts | 82° |
| 2026-05-09 00:58 | -2.14660 | -53.39256 | 19886 ft | 403 kts | 82° |
| 2026-05-09 00:59 | -2.14261 | -53.36477 | 19984 ft | 404 kts | 82° |
| 2026-05-09 00:59 | -2.13862 | -53.33687 | 20061 ft | 405 kts | 82° |
| 2026-05-09 00:59 | -2.13464 | -53.30910 | 20163 ft | 405 kts | 82° |
| 2026-05-09 00:59 | -2.13064 | -53.28119 | 20255 ft | 406 kts | 82° |
| 2026-05-09 01:00 | -2.12661 | -53.25309 | 20349 ft | 406 kts | 82° |
| 2026-05-09 01:00 | -2.12265 | -53.22550 | 20455 ft | 407 kts | 82° |
| 2026-05-09 01:00 | -2.11864 | -53.19751 | 20535 ft | 407 kts | 82° |
| 2026-05-09 01:00 | -2.11462 | -53.16948 | 20618 ft | 407 kts | 82° |
| 2026-05-09 01:01 | -2.11060 | -53.14142 | 20715 ft | 408 kts | 82° |
| 2026-05-09 01:01 | -2.10657 | -53.11334 | 20775 ft | 408 kts | 82° |
| 2026-05-09 01:01 | -2.10254 | -53.08523 | 20859 ft | 409 kts | 82° |
| 2026-05-09 01:01 | -2.09851 | -53.05718 | 20929 ft | 409 kts | 82° |
| 2026-05-09 01:02 | -2.09447 | -53.02898 | 21011 ft | 410 kts | 82° |
| 2026-05-09 01:02 | -2.09041 | -53.00074 | 21086 ft | 410 kts | 82° |
| 2026-05-09 01:02 | -2.08636 | -52.97254 | 21167 ft | 410 kts | 82° |
| 2026-05-09 01:02 | -2.08230 | -52.94425 | 21239 ft | 410 kts | 82° |
| 2026-05-09 01:03 | -2.07825 | -52.91602 | 21306 ft | 411 kts | 82° |
| 2026-05-09 01:03 | -2.07419 | -52.88777 | 21371 ft | 411 kts | 82° |
| 2026-05-09 01:03 | -2.07013 | -52.85947 | 21434 ft | 411 kts | 82° |
| 2026-05-09 01:03 | -2.06606 | -52.83112 | 21496 ft | 412 kts | 82° |
| 2026-05-09 01:04 | -2.06204 | -52.80316 | 21553 ft | 412 kts | 82° |
| 2026-05-09 01:04 | -2.05797 | -52.77479 | 21615 ft | 412 kts | 82° |
| 2026-05-09 01:04 | -2.05389 | -52.74645 | 21678 ft | 412 kts | 82° |
| 2026-05-09 01:04 | -2.04981 | -52.71802 | 21744 ft | 412 kts | 82° |
| 2026-05-09 01:05 | -2.04573 | -52.68961 | 21798 ft | 413 kts | 82° |
| 2026-05-09 01:05 | -2.04164 | -52.66120 | 21855 ft | 413 kts | 82° |
| 2026-05-09 01:05 | -2.03345 | -52.60421 | 21958 ft | 414 kts | 82° |
| 2026-05-09 01:06 | -2.02935 | -52.57570 | 22012 ft | 414 kts | 82° |
| 2026-05-09 01:06 | -2.02526 | -52.54727 | 22053 ft | 414 kts | 82° |
| 2026-05-09 01:06 | -2.02116 | -52.51877 | 22104 ft | 414 kts | 82° |
| 2026-05-09 01:06 | -2.01711 | -52.49060 | 22167 ft | 414 kts | 82° |
| 2026-05-09 01:07 | -2.01301 | -52.46208 | 22215 ft | 414 kts | 82° |
| 2026-05-09 01:07 | -2.00891 | -52.43360 | 22255 ft | 414 kts | 82° |
| 2026-05-09 01:07 | -2.00481 | -52.40509 | 22301 ft | 415 kts | 82° |
| 2026-05-09 01:07 | -2.00070 | -52.37653 | 22344 ft | 415 kts | 82° |
| 2026-05-09 01:08 | -1.99658 | -52.34796 | 22379 ft | 415 kts | 82° |
| 2026-05-09 01:08 | -1.99249 | -52.31949 | 22419 ft | 415 kts | 82° |
| 2026-05-09 01:08 | -1.98837 | -52.29089 | 22459 ft | 415 kts | 82° |
| 2026-05-09 01:08 | -1.98425 | -52.26226 | 22500 ft | 415 kts | 82° |
| 2026-05-09 01:09 | -1.98013 | -52.23367 | 22541 ft | 415 kts | 82° |
| 2026-05-09 01:09 | -1.97601 | -52.20509 | 22579 ft | 415 kts | 82° |
| 2026-05-09 01:09 | -1.97189 | -52.17648 | 22612 ft | 415 kts | 82° |
| 2026-05-09 01:09 | -1.96783 | -52.14825 | 22644 ft | 416 kts | 82° |
| 2026-05-09 01:10 | -1.96370 | -52.11965 | 22676 ft | 416 kts | 82° |
| 2026-05-09 01:10 | -1.95957 | -52.09096 | 22702 ft | 416 kts | 82° |
| 2026-05-09 01:10 | -1.95546 | -52.06242 | 22730 ft | 416 kts | 82° |
| 2026-05-09 01:10 | -1.95131 | -52.03362 | 23120 ft | 417 kts | 82° |
| 2026-05-09 01:11 | -1.94715 | -52.00479 | 23538 ft | 419 kts | 82° |
| 2026-05-09 01:11 | -1.94297 | -51.97580 | 23827 ft | 422 kts | 82° |
| 2026-05-09 01:11 | -1.93877 | -51.94669 | 24132 ft | 424 kts | 82° |
| 2026-05-09 01:11 | -1.93455 | -51.91740 | 24420 ft | 427 kts | 82° |
| 2026-05-09 01:12 | -1.93030 | -51.88796 | 24721 ft | 429 kts | 82° |
| 2026-05-09 01:12 | -1.92603 | -51.85835 | 25007 ft | 432 kts | 82° |
| 2026-05-09 01:12 | -1.92180 | -51.82898 | 25297 ft | 434 kts | 82° |
| 2026-05-09 01:12 | -1.91743 | -51.79870 | 25591 ft | 437 kts | 82° |
| 2026-05-09 01:13 | -1.91314 | -51.76899 | 25867 ft | 439 kts | 82° |
| 2026-05-09 01:13 | -1.90878 | -51.73874 | 26153 ft | 441 kts | 82° |
| 2026-05-09 01:13 | -1.90438 | -51.70828 | 26430 ft | 444 kts | 82° |
| 2026-05-09 01:13 | -1.89996 | -51.67769 | 26706 ft | 446 kts | 82° |
| 2026-05-09 01:14 | -1.89551 | -51.64687 | 26994 ft | 448 kts | 82° |
| 2026-05-09 01:14 | -1.89105 | -51.61597 | 27263 ft | 451 kts | 82° |
| 2026-05-09 01:14 | -1.88656 | -51.58489 | 27528 ft | 453 kts | 82° |
| 2026-05-09 01:14 | -1.88206 | -51.55375 | 27795 ft | 455 kts | 82° |
| 2026-05-09 01:15 | -1.87753 | -51.52234 | 28074 ft | 457 kts | 82° |
| 2026-05-09 01:15 | -1.87297 | -51.49080 | 28346 ft | 459 kts | 82° |
| 2026-05-09 01:15 | -1.86839 | -51.45905 | 28582 ft | 462 kts | 82° |
| 2026-05-09 01:15 | -1.86378 | -51.42719 | 28871 ft | 463 kts | 82° |
| 2026-05-09 01:16 | -1.85914 | -51.39512 | 29087 ft | 467 kts | 82° |
| 2026-05-09 01:16 | -1.85450 | -51.36293 | 29346 ft | 468 kts | 82° |
| 2026-05-09 01:16 | -1.84984 | -51.33074 | 29564 ft | 471 kts | 82° |
| 2026-05-09 01:17 | -1.84042 | -51.26557 | 30021 ft | 476 kts | 82° |
| 2026-05-09 01:17 | -1.83568 | -51.23277 | 30221 ft | 478 kts | 82° |
| 2026-05-09 01:17 | -1.83096 | -51.20015 | 30433 ft | 480 kts | 82° |
| 2026-05-09 01:17 | -1.82617 | -51.16705 | 30642 ft | 481 kts | 82° |
| 2026-05-09 01:18 | -1.82137 | -51.13387 | 30852 ft | 483 kts | 82° |
| 2026-05-09 01:18 | -1.81656 | -51.10062 | 31077 ft | 484 kts | 82° |
| 2026-05-09 01:18 | -1.81176 | -51.06742 | 31345 ft | 484 kts | 82° |
| 2026-05-09 01:18 | -1.80692 | -51.03403 | 31631 ft | 484 kts | 82° |
| 2026-05-09 01:19 | -1.80211 | -51.00075 | 31917 ft | 483 kts | 82° |
| 2026-05-09 01:19 | -1.79910 | -50.96733 | 32221 ft | 482 kts | 88° |
| 2026-05-09 01:19 | -1.79789 | -50.93429 | 32505 ft | 482 kts | 88° |
| 2026-05-09 01:19 | -1.79675 | -50.90083 | 32803 ft | 481 kts | 88° |
| 2026-05-09 01:20 | -1.79565 | -50.86734 | 32959 ft | 482 kts | 88° |
| 2026-05-09 01:20 | -1.79457 | -50.83399 | 32957 ft | 480 kts | 88° |
| 2026-05-09 01:20 | -1.79242 | -50.76740 | 32958 ft | 479 kts | 88° |
| 2026-05-09 01:21 | -1.79026 | -50.70081 | 32955 ft | 479 kts | 88° |
| 2026-05-09 01:21 | -1.78811 | -50.63419 | 32954 ft | 479 kts | 88° |
| 2026-05-09 01:22 | -1.78597 | -50.56807 | 32953 ft | 480 kts | 88° |
| 2026-05-09 01:22 | -1.78380 | -50.50136 | 32957 ft | 480 kts | 88° |
| 2026-05-09 01:23 | -1.78164 | -50.43470 | 32955 ft | 480 kts | 88° |
| 2026-05-09 01:23 | -1.77947 | -50.36796 | 32957 ft | 480 kts | 88° |
| 2026-05-09 01:24 | -1.77729 | -50.30125 | 32957 ft | 481 kts | 88° |
| 2026-05-09 01:24 | -1.77512 | -50.23448 | 32956 ft | 481 kts | 88° |
| 2026-05-09 01:25 | -1.77295 | -50.16805 | 32332 ft | 475 kts | 88° |
| 2026-05-09 01:25 | -1.77188 | -50.13528 | 31536 ft | 477 kts | 88° |
| 2026-05-09 01:25 | -1.76982 | -50.10221 | 30724 ft | 479 kts | 83° |
| 2026-05-09 01:26 | -1.76559 | -50.06919 | 29888 ft | 481 kts | 83° |
| 2026-05-09 01:26 | -1.76121 | -50.03597 | 28955 ft | 480 kts | 83° |
| 2026-05-09 01:26 | -1.75677 | -50.00298 | 27598 ft | 478 kts | 82° |
| 2026-05-09 01:26 | -1.75231 | -49.96999 | 26090 ft | 480 kts | 82° |
| 2026-05-09 01:27 | -1.74781 | -49.93679 | 24691 ft | 485 kts | 82° |
| 2026-05-09 01:27 | -1.74329 | -49.90334 | 23975 ft | 482 kts | 82° |
| 2026-05-09 01:27 | -1.73888 | -49.87078 | 23382 ft | 475 kts | 82° |
| 2026-05-09 01:27 | -1.73448 | -49.83828 | 22724 ft | 468 kts | 82° |
| 2026-05-09 01:28 | -1.73016 | -49.80632 | 22129 ft | 461 kts | 82° |
| 2026-05-09 01:28 | -1.72593 | -49.77508 | 21649 ft | 451 kts | 82° |
| 2026-05-09 01:28 | -1.72171 | -49.74395 | 20933 ft | 449 kts | 82° |
| 2026-05-09 01:28 | -1.71757 | -49.71340 | 20892 ft | 442 kts | 82° |
| 2026-05-09 01:29 | -1.71346 | -49.68301 | 20854 ft | 442 kts | 82° |
| 2026-05-09 01:29 | -1.70932 | -49.65249 | 20855 ft | 442 kts | 82° |
| 2026-05-09 01:29 | -1.70520 | -49.62212 | 20851 ft | 440 kts | 82° |
| 2026-05-09 01:29 | -1.70112 | -49.59199 | 20856 ft | 434 kts | 82° |
| 2026-05-09 01:30 | -1.69710 | -49.56233 | 20857 ft | 430 kts | 82° |
| 2026-05-09 01:30 | -1.69308 | -49.53268 | 20418 ft | 432 kts | 82° |
| 2026-05-09 01:30 | -1.68906 | -49.50302 | 19696 ft | 430 kts | 82° |
| 2026-05-09 01:30 | -1.68506 | -49.47350 | 18689 ft | 425 kts | 82° |
| 2026-05-09 01:31 | -1.68108 | -49.44418 | 17407 ft | 425 kts | 82° |
| 2026-05-09 01:31 | -1.67710 | -49.41492 | 16100 ft | 423 kts | 82° |
| 2026-05-09 01:31 | -1.67318 | -49.38614 | 14857 ft | 426 kts | 82° |
| 2026-05-09 01:31 | -1.66919 | -49.35682 | 13618 ft | 424 kts | 83° |
| 2026-05-09 01:32 | -1.66525 | -49.32792 | 12325 ft | 418 kts | 83° |
| 2026-05-09 01:32 | -1.66135 | -49.29928 | 11075 ft | 413 kts | 83° |
| 2026-05-09 01:32 | -1.65759 | -49.27165 | 10845 ft | 384 kts | 83° |
| 2026-05-09 01:32 | -1.65412 | -49.24623 | 10842 ft | 354 kts | 83° |
| 2026-05-09 01:33 | -1.65094 | -49.22285 | 10855 ft | 326 kts | 83° |
| 2026-05-09 01:33 | -1.64800 | -49.20126 | 10844 ft | 301 kts | 83° |
| 2026-05-09 01:33 | -1.64527 | -49.18123 | 10760 ft | 281 kts | 83° |
| 2026-05-09 01:33 | -1.64270 | -49.16236 | 10636 ft | 264 kts | 83° |
| 2026-05-09 01:34 | -1.64029 | -49.14471 | 10504 ft | 250 kts | 83° |
| 2026-05-09 01:34 | -1.63794 | -49.12742 | 10398 ft | 257 kts | 83° |
| 2026-05-09 01:34 | -1.63547 | -49.10933 | 10273 ft | 266 kts | 83° |
| 2026-05-09 01:34 | -1.63298 | -49.09111 | 10141 ft | 271 kts | 83° |
| 2026-05-09 01:35 | -1.63043 | -49.07243 | 9982 ft | 271 kts | 83° |
| 2026-05-09 01:35 | -1.62789 | -49.05383 | 9700 ft | 270 kts | 83° |
| 2026-05-09 01:35 | -1.62535 | -49.03532 | 9385 ft | 268 kts | 83° |
| 2026-05-09 01:35 | -1.62284 | -49.01689 | 9093 ft | 267 kts | 83° |
| 2026-05-09 01:36 | -1.62032 | -48.99853 | 8810 ft | 266 kts | 83° |
| 2026-05-09 01:36 | -1.61782 | -48.98025 | 8529 ft | 265 kts | 83° |
| 2026-05-09 01:36 | -1.61533 | -48.96204 | 8249 ft | 264 kts | 83° |
| 2026-05-09 01:36 | -1.61296 | -48.94473 | 7989 ft | 262 kts | 83° |
| 2026-05-09 01:37 | -1.61052 | -48.92685 | 7728 ft | 263 kts | 83° |
| 2026-05-09 01:37 | -1.60804 | -48.90871 | 7442 ft | 263 kts | 83° |
| 2026-05-09 01:37 | -1.60556 | -48.89063 | 7157 ft | 262 kts | 83° |
| 2026-05-09 01:37 | -1.60309 | -48.87263 | 6875 ft | 260 kts | 83° |
| 2026-05-09 01:38 | -1.60065 | -48.85474 | 6592 ft | 259 kts | 83° |
| 2026-05-09 01:38 | -1.59823 | -48.83701 | 6312 ft | 257 kts | 83° |
| 2026-05-09 01:38 | -1.59581 | -48.81937 | 6017 ft | 255 kts | 83° |
| 2026-05-09 01:38 | -1.59341 | -48.80184 | 5739 ft | 254 kts | 83° |
| 2026-05-09 01:39 | -1.59103 | -48.78444 | 5457 ft | 252 kts | 83° |
| 2026-05-09 01:39 | -1.58868 | -48.76722 | 5192 ft | 249 kts | 83° |
| 2026-05-09 01:39 | -1.58633 | -48.75013 | 4966 ft | 245 kts | 83° |
| 2026-05-09 01:39 | -1.58406 | -48.73351 | 4840 ft | 237 kts | 83° |
| 2026-05-09 01:40 | -1.58259 | -48.72281 | 4756 ft | 231 kts | 83° |
| 2026-05-09 01:40 | -1.58045 | -48.70717 | 4638 ft | 223 kts | 83° |
| 2026-05-09 01:40 | -1.57839 | -48.69216 | 4550 ft | 216 kts | 83° |
| 2026-05-09 01:40 | -1.57506 | -48.67765 | 4442 ft | 216 kts | 65° |
| 2026-05-09 01:41 | -1.56577 | -48.66581 | 4289 ft | 219 kts | 49° |
| 2026-05-09 01:41 | -1.55520 | -48.65483 | 4131 ft | 219 kts | 49° |
| 2026-05-09 01:41 | -1.54461 | -48.64394 | 3974 ft | 219 kts | 49° |
| 2026-05-09 01:41 | -1.53052 | -48.62957 | 3770 ft | 216 kts | 49° |
| 2026-05-09 01:42 | -1.52037 | -48.61925 | 3672 ft | 199 kts | 49° |
| 2026-05-09 01:42 | -1.51413 | -48.61291 | 3553 ft | 186 kts | 49° |
| 2026-05-09 01:42 | -1.50547 | -48.60411 | 3372 ft | 172 kts | 49° |
| 2026-05-09 01:42 | -1.49758 | -48.59612 | 3261 ft | 152 kts | 50° |
| 2026-05-09 01:43 | -1.49032 | -48.58874 | 3087 ft | 146 kts | 49° |
| 2026-05-09 01:43 | -1.48324 | -48.58156 | 2849 ft | 144 kts | 50° |
| 2026-05-09 01:43 | -1.47624 | -48.57447 | 2626 ft | 143 kts | 49° |
| 2026-05-09 01:43 | -1.46928 | -48.56737 | 2294 ft | 143 kts | 49° |
| 2026-05-09 01:44 | -1.46250 | -48.56027 | 2019 ft | 140 kts | 49° |
| 2026-05-09 01:44 | -1.45567 | -48.55323 | 1831 ft | 140 kts | 48° |
| 2026-05-09 01:44 | -1.44886 | -48.54630 | 1676 ft | 139 kts | 48° |
| 2026-05-09 01:44 | -1.44205 | -48.53935 | 1568 ft | 140 kts | 47° |
| 2026-05-09 01:45 | -1.43522 | -48.53242 | 1474 ft | 141 kts | 47° |
| 2026-05-09 01:45 | -1.42840 | -48.52558 | 1212 ft | 141 kts | 46° |
| 2026-05-09 01:45 | -1.42137 | -48.51882 | 925 ft | 139 kts | 45° |
| 2026-05-09 01:45 | -1.41452 | -48.51192 | 759 ft | 140 kts | 46° |
| 2026-05-09 01:46 | -1.40773 | -48.50489 | 495 ft | 141 kts | 46° |
| 2026-05-09 01:46 | -1.40086 | -48.49788 | 341 ft | 142 kts | 45° |
| 2026-05-09 01:46 | -1.39395 | -48.49091 | 212 ft | 140 kts | 43° |
| 2026-05-09 01:46 | -1.38696 | -48.48394 | 98 ft | 148 kts | 46° |
| 2026-05-09 01:47 | -1.37964 | -48.47656 | 50 ft | 136 kts | 48° |
| 2026-05-09 01:47 | -1.37587 | -48.47261 | 53 ft | 37 kts | 57° |
| 2026-05-09 01:47 | -1.37544 | -48.47223 | 55 ft | 0 kts | 318° |
| 2026-05-09 01:47 | -1.37543 | -48.47228 | 55 ft | 0 kts | 285° |
| 2026-05-09 01:48 | -1.37562 | -48.47261 | 54 ft | 15 kts | 219° |
| 2026-05-09 01:48 | -1.37691 | -48.47380 | 48 ft | 35 kts | 225° |
| 2026-05-09 01:48 | -1.37900 | -48.47577 | 50 ft | 39 kts | 222° |
| 2026-05-09 01:48 | -1.38198 | -48.47644 | 54 ft | 50 kts | 184° |
| 2026-05-09 01:49 | -1.38559 | -48.47674 | 54 ft | 45 kts | 185° |
| 2026-05-09 01:49 | -1.38667 | -48.47730 | 58 ft | 19 kts | 271° |
| 2026-05-09 01:49 | -1.38733 | -48.47800 | 58 ft | 18 kts | 185° |
| 2026-05-09 01:49 | -1.38853 | -48.47889 | 58 ft | 6 kts | 225° |
| 2026-05-09 01:50 | -1.38854 | -48.47890 | 58 ft | 0 kts | 225° |